sensor_id;sensor_type;location;lat;lon;timestamp;temperature;humidity
41628;DHT22;27321;50.816;6.054;2023-06-26T00:00:57;24.30;56.90
41628;DHT22;27321;50.816;6.054;2023-06-26T00:03:59;24.30;57.00
41628;DHT22;27321;50.816;6.054;2023-06-26T00:07:01;24.30;56.60
41628;DHT22;27321;50.816;6.054;2023-06-26T00:10:03;24.20;56.10
41628;DHT22;27321;50.816;6.054;2023-06-26T00:13:04;24.30;56.40
41628;DHT22;27321;50.816;6.054;2023-06-26T00:16:05;24.20;56.90
41628;DHT22;27321;50.816;6.054;2023-06-26T00:19:06;24.20;56.40
41628;DHT22;27321;50.816;6.054;2023-06-26T00:22:07;24.20;56.70
41628;DHT22;27321;50.816;6.054;2023-06-26T00:25:08;24.20;56.50
41628;DHT22;27321;50.816;6.054;2023-06-26T00:28:09;24.10;57.20
41628;DHT22;27321;50.816;6.054;2023-06-26T00:31:12;24.10;57.60
41628;DHT22;27321;50.816;6.054;2023-06-26T00:34:13;24.10;57.30
41628;DHT22;27321;50.816;6.054;2023-06-26T00:37:15;24.00;56.40
41628;DHT22;27321;50.816;6.054;2023-06-26T00:40:16;24.00;56.00
41628;DHT22;27321;50.816;6.054;2023-06-26T00:43:17;24.00;55.40
41628;DHT22;27321;50.816;6.054;2023-06-26T00:46:18;24.10;54.60
41628;DHT22;27321;50.816;6.054;2023-06-26T00:49:19;24.10;54.20
41628;DHT22;27321;50.816;6.054;2023-06-26T00:52:20;24.10;54.20
41628;DHT22;27321;50.816;6.054;2023-06-26T00:55:21;24.10;53.90
41628;DHT22;27321;50.816;6.054;2023-06-26T00:58:24;24.20;53.90
41628;DHT22;27321;50.816;6.054;2023-06-26T01:01:25;24.10;53.40
41628;DHT22;27321;50.816;6.054;2023-06-26T01:04:26;24.10;53.00
41628;DHT22;27321;50.816;6.054;2023-06-26T01:07:34;24.10;52.60
41628;DHT22;27321;50.816;6.054;2023-06-26T01:10:36;24.10;52.50
41628;DHT22;27321;50.816;6.054;2023-06-26T01:13:38;24.10;52.50
41628;DHT22;27321;50.816;6.054;2023-06-26T01:16:41;24.10;52.70
41628;DHT22;27321;50.816;6.054;2023-06-26T01:19:48;24.10;52.60
41628;DHT22;27321;50.816;6.054;2023-06-26T01:26:34;24.20;52.80
41628;DHT22;27321;50.816;6.054;2023-06-26T01:29:36;24.10;52.90
41628;DHT22;27321;50.816;6.054;2023-06-26T01:32:38;24.10;53.10
41628;DHT22;27321;50.816;6.054;2023-06-26T01:35:40;24.00;53.40
41628;DHT22;27321;50.816;6.054;2023-06-26T01:38:41;24.00;53.70
41628;DHT22;27321;50.816;6.054;2023-06-26T01:41:42;24.00;54.00
41628;DHT22;27321;50.816;6.054;2023-06-26T01:44:46;24.00;54.40
41628;DHT22;27321;50.816;6.054;2023-06-26T01:47:50;24.00;54.80
41628;DHT22;27321;50.816;6.054;2023-06-26T01:50:53;23.90;55.20
41628;DHT22;27321;50.816;6.054;2023-06-26T01:53:57;23.90;55.60
41628;DHT22;27321;50.816;6.054;2023-06-26T01:57:00;23.80;56.20
41628;DHT22;27321;50.816;6.054;2023-06-26T02:00:01;23.70;56.70
41628;DHT22;27321;50.816;6.054;2023-06-26T02:03:14;23.70;57.40
41628;DHT22;27321;50.816;6.054;2023-06-26T02:06:15;23.70;57.80
41628;DHT22;27321;50.816;6.054;2023-06-26T02:09:16;23.60;58.40
41628;DHT22;27321;50.816;6.054;2023-06-26T02:12:18;23.60;58.70
41628;DHT22;27321;50.816;6.054;2023-06-26T02:15:19;23.50;58.80
41628;DHT22;27321;50.816;6.054;2023-06-26T02:18:20;23.50;59.30
41628;DHT22;27321;50.816;6.054;2023-06-26T02:21:23;23.50;59.70
41628;DHT22;27321;50.816;6.054;2023-06-26T02:24:24;23.30;60.20
41628;DHT22;27321;50.816;6.054;2023-06-26T02:27:27;23.30;60.70
41628;DHT22;27321;50.816;6.054;2023-06-26T02:30:28;23.20;61.00
41628;DHT22;27321;50.816;6.054;2023-06-26T02:33:29;23.20;61.20
41628;DHT22;27321;50.816;6.054;2023-06-26T02:36:31;23.20;61.50
41628;DHT22;27321;50.816;6.054;2023-06-26T02:39:32;23.10;61.70
41628;DHT22;27321;50.816;6.054;2023-06-26T02:42:33;23.10;61.90
41628;DHT22;27321;50.816;6.054;2023-06-26T02:45:35;23.10;62.30
41628;DHT22;27321;50.816;6.054;2023-06-26T02:48:36;23.00;62.20
41628;DHT22;27321;50.816;6.054;2023-06-26T02:51:37;23.00;62.20
41628;DHT22;27321;50.816;6.054;2023-06-26T02:54:45;22.90;62.20
41628;DHT22;27321;50.816;6.054;2023-06-26T02:57:47;22.90;62.10
41628;DHT22;27321;50.816;6.054;2023-06-26T03:00:49;22.80;61.60
41628;DHT22;27321;50.816;6.054;2023-06-26T03:03:53;22.80;60.80
41628;DHT22;27321;50.816;6.054;2023-06-26T03:06:55;22.70;60.60
41628;DHT22;27321;50.816;6.054;2023-06-26T03:09:56;22.60;60.20
41628;DHT22;27321;50.816;6.054;2023-06-26T03:12:57;22.60;60.00
41628;DHT22;27321;50.816;6.054;2023-06-26T03:15:59;22.50;60.20
41628;DHT22;27321;50.816;6.054;2023-06-26T03:19:00;22.50;60.30
41628;DHT22;27321;50.816;6.054;2023-06-26T03:22:02;22.40;60.20
41628;DHT22;27321;50.816;6.054;2023-06-26T03:25:05;22.40;60.20
41628;DHT22;27321;50.816;6.054;2023-06-26T03:28:06;22.30;60.50
41628;DHT22;27321;50.816;6.054;2023-06-26T03:31:09;22.30;60.40
41628;DHT22;27321;50.816;6.054;2023-06-26T03:34:10;22.30;60.50
41628;DHT22;27321;50.816;6.054;2023-06-26T03:37:11;22.30;60.30
41628;DHT22;27321;50.816;6.054;2023-06-26T03:40:13;22.30;60.50
41628;DHT22;27321;50.816;6.054;2023-06-26T03:43:13;22.20;60.30
41628;DHT22;27321;50.816;6.054;2023-06-26T03:46:25;22.30;60.10
41628;DHT22;27321;50.816;6.054;2023-06-26T03:49:26;22.20;60.30
41628;DHT22;27321;50.816;6.054;2023-06-26T03:52:27;22.20;60.60
41628;DHT22;27321;50.816;6.054;2023-06-26T03:55:31;22.10;60.70
41628;DHT22;27321;50.816;6.054;2023-06-26T03:58:32;22.10;61.00
41628;DHT22;27321;50.816;6.054;2023-06-26T04:01:33;22.10;61.00
41628;DHT22;27321;50.816;6.054;2023-06-26T04:04:34;22.10;61.10
41628;DHT22;27321;50.816;6.054;2023-06-26T04:07:35;22.10;61.40
41628;DHT22;27321;50.816;6.054;2023-06-26T04:10:39;22.10;61.40
41628;DHT22;27321;50.816;6.054;2023-06-26T04:13:40;22.00;61.60
41628;DHT22;27321;50.816;6.054;2023-06-26T04:16:41;22.00;61.60
41628;DHT22;27321;50.816;6.054;2023-06-26T04:19:41;22.00;61.70
41628;DHT22;27321;50.816;6.054;2023-06-26T04:22:42;22.00;61.70
41628;DHT22;27321;50.816;6.054;2023-06-26T04:25:43;22.00;61.80
41628;DHT22;27321;50.816;6.054;2023-06-26T04:28:44;21.90;62.10
41628;DHT22;27321;50.816;6.054;2023-06-26T04:31:45;21.80;62.30
41628;DHT22;27321;50.816;6.054;2023-06-26T04:34:46;21.80;62.20
41628;DHT22;27321;50.816;6.054;2023-06-26T04:37:48;21.80;62.30
41628;DHT22;27321;50.816;6.054;2023-06-26T04:40:49;21.90;62.40
41628;DHT22;27321;50.816;6.054;2023-06-26T04:43:50;21.80;62.20
41628;DHT22;27321;50.816;6.054;2023-06-26T04:46:51;21.80;62.50
41628;DHT22;27321;50.816;6.054;2023-06-26T04:49:52;21.90;62.50
41628;DHT22;27321;50.816;6.054;2023-06-26T04:52:53;21.90;62.70
41628;DHT22;27321;50.816;6.054;2023-06-26T04:55:54;21.80;62.90
41628;DHT22;27321;50.816;6.054;2023-06-26T04:58:55;21.90;63.00
41628;DHT22;27321;50.816;6.054;2023-06-26T05:01:56;22.00;62.90
41628;DHT22;27321;50.816;6.054;2023-06-26T05:04:57;21.90;63.30
41628;DHT22;27321;50.816;6.054;2023-06-26T05:07:58;21.90;63.40
41628;DHT22;27321;50.816;6.054;2023-06-26T05:10:59;22.00;63.80
41628;DHT22;27321;50.816;6.054;2023-06-26T05:13:59;22.00;63.70
41628;DHT22;27321;50.816;6.054;2023-06-26T05:17:00;22.00;63.70
41628;DHT22;27321;50.816;6.054;2023-06-26T05:20:01;21.90;63.90
41628;DHT22;27321;50.816;6.054;2023-06-26T05:23:05;22.00;64.20
41628;DHT22;27321;50.816;6.054;2023-06-26T05:26:06;22.10;64.60
41628;DHT22;27321;50.816;6.054;2023-06-26T05:29:07;22.10;64.10
41628;DHT22;27321;50.816;6.054;2023-06-26T05:32:09;22.20;64.40
41628;DHT22;27321;50.816;6.054;2023-06-26T05:35:10;22.30;63.50
41628;DHT22;27321;50.816;6.054;2023-06-26T05:38:14;22.40;64.00
41628;DHT22;27321;50.816;6.054;2023-06-26T05:41:15;22.30;64.30
41628;DHT22;27321;50.816;6.054;2023-06-26T05:44:16;22.20;64.40
41628;DHT22;27321;50.816;6.054;2023-06-26T05:47:17;22.20;64.70
41628;DHT22;27321;50.816;6.054;2023-06-26T05:50:18;22.10;64.90
41628;DHT22;27321;50.816;6.054;2023-06-26T05:53:20;22.10;64.80
41628;DHT22;27321;50.816;6.054;2023-06-26T05:56:21;22.10;65.30
41628;DHT22;27321;50.816;6.054;2023-06-26T05:59:23;22.10;65.60
41628;DHT22;27321;50.816;6.054;2023-06-26T06:02:24;22.20;65.70
41628;DHT22;27321;50.816;6.054;2023-06-26T06:05:25;22.30;65.30
41628;DHT22;27321;50.816;6.054;2023-06-26T06:08:26;22.40;64.70
41628;DHT22;27321;50.816;6.054;2023-06-26T06:11:27;22.40;64.70
41628;DHT22;27321;50.816;6.054;2023-06-26T06:14:28;22.40;64.70
41628;DHT22;27321;50.816;6.054;2023-06-26T06:17:29;22.40;64.50
41628;DHT22;27321;50.816;6.054;2023-06-26T06:20:30;22.40;64.50
41628;DHT22;27321;50.816;6.054;2023-06-26T06:23:31;22.30;64.10
41628;DHT22;27321;50.816;6.054;2023-06-26T06:26:32;22.30;64.30
41628;DHT22;27321;50.816;6.054;2023-06-26T06:29:33;22.40;64.80
41628;DHT22;27321;50.816;6.054;2023-06-26T06:32:34;22.50;63.60
41628;DHT22;27321;50.816;6.054;2023-06-26T06:35:35;22.50;63.70
41628;DHT22;27321;50.816;6.054;2023-06-26T06:38:36;22.50;64.10
41628;DHT22;27321;50.816;6.054;2023-06-26T06:41:37;22.60;63.40
41628;DHT22;27321;50.816;6.054;2023-06-26T06:44:40;22.70;63.70
41628;DHT22;27321;50.816;6.054;2023-06-26T06:47:41;22.60;62.60
41628;DHT22;27321;50.816;6.054;2023-06-26T06:50:42;22.50;63.50
41628;DHT22;27321;50.816;6.054;2023-06-26T06:53:43;22.60;63.90
41628;DHT22;27321;50.816;6.054;2023-06-26T06:56:44;22.50;63.20
41628;DHT22;27321;50.816;6.054;2023-06-26T06:59:44;22.60;63.00
41628;DHT22;27321;50.816;6.054;2023-06-26T07:02:46;22.60;63.80
41628;DHT22;27321;50.816;6.054;2023-06-26T07:05:47;22.60;63.70
41628;DHT22;27321;50.816;6.054;2023-06-26T07:08:48;22.60;63.70
41628;DHT22;27321;50.816;6.054;2023-06-26T07:11:48;22.70;63.60
41628;DHT22;27321;50.816;6.054;2023-06-26T07:14:49;22.80;63.00
41628;DHT22;27321;50.816;6.054;2023-06-26T07:17:50;22.90;63.40
41628;DHT22;27321;50.816;6.054;2023-06-26T07:20:51;22.90;62.80
41628;DHT22;27321;50.816;6.054;2023-06-26T07:23:52;22.90;62.10
41628;DHT22;27321;50.816;6.054;2023-06-26T07:26:53;22.80;62.80
41628;DHT22;27321;50.816;6.054;2023-06-26T07:29:54;22.80;61.90
41628;DHT22;27321;50.816;6.054;2023-06-26T07:32:55;22.90;62.60
41628;DHT22;27321;50.816;6.054;2023-06-26T07:35:56;22.80;62.40
41628;DHT22;27321;50.816;6.054;2023-06-26T07:38:56;22.80;62.20
41628;DHT22;27321;50.816;6.054;2023-06-26T07:41:57;22.70;62.70
41628;DHT22;27321;50.816;6.054;2023-06-26T07:45:01;22.80;62.10
41628;DHT22;27321;50.816;6.054;2023-06-26T07:48:02;22.90;61.80
41628;DHT22;27321;50.816;6.054;2023-06-26T07:51:03;23.00;62.00
41628;DHT22;27321;50.816;6.054;2023-06-26T07:54:04;23.00;61.20
41628;DHT22;27321;50.816;6.054;2023-06-26T07:57:05;23.00;60.30
41628;DHT22;27321;50.816;6.054;2023-06-26T08:00:09;23.10;60.70
41628;DHT22;27321;50.816;6.054;2023-06-26T08:03:17;23.00;60.70
41628;DHT22;27321;50.816;6.054;2023-06-26T08:06:17;23.00;60.70
41628;DHT22;27321;50.816;6.054;2023-06-26T08:09:20;23.00;59.90
41628;DHT22;27321;50.816;6.054;2023-06-26T08:12:22;23.00;60.40
41628;DHT22;27321;50.816;6.054;2023-06-26T08:15:23;22.90;60.00
41628;DHT22;27321;50.816;6.054;2023-06-26T08:18:24;22.90;59.90
41628;DHT22;27321;50.816;6.054;2023-06-26T08:21:25;22.80;60.60
41628;DHT22;27321;50.816;6.054;2023-06-26T08:24:26;22.90;60.50
41628;DHT22;27321;50.816;6.054;2023-06-26T08:27:27;22.80;61.10
41628;DHT22;27321;50.816;6.054;2023-06-26T08:30:28;22.90;60.40
41628;DHT22;27321;50.816;6.054;2023-06-26T08:33:29;23.00;60.20
41628;DHT22;27321;50.816;6.054;2023-06-26T08:36:30;23.00;60.10
41628;DHT22;27321;50.816;6.054;2023-06-26T08:39:31;23.00;59.10
41628;DHT22;27321;50.816;6.054;2023-06-26T08:42:32;23.00;59.80
41628;DHT22;27321;50.816;6.054;2023-06-26T08:45:33;23.20;59.10
41628;DHT22;27321;50.816;6.054;2023-06-26T08:48:35;23.30;59.50
41628;DHT22;27321;50.816;6.054;2023-06-26T08:51:42;23.40;58.30
41628;DHT22;27321;50.816;6.054;2023-06-26T08:54:47;23.40;58.30
41628;DHT22;27321;50.816;6.054;2023-06-26T08:57:53;23.50;58.00
41628;DHT22;27321;50.816;6.054;2023-06-26T09:00:54;23.60;58.10
41628;DHT22;27321;50.816;6.054;2023-06-26T09:03:56;23.70;57.80
41628;DHT22;27321;50.816;6.054;2023-06-26T09:06:57;23.80;57.10
41628;DHT22;27321;50.816;6.054;2023-06-26T09:09:58;23.80;57.80
41628;DHT22;27321;50.816;6.054;2023-06-26T09:12:59;23.90;57.40
41628;DHT22;27321;50.816;6.054;2023-06-26T09:16:07;24.00;57.00
41628;DHT22;27321;50.816;6.054;2023-06-26T09:19:10;23.90;56.30
41628;DHT22;27321;50.816;6.054;2023-06-26T09:22:13;23.80;54.10
41628;DHT22;27321;50.816;6.054;2023-06-26T09:25:15;23.70;55.50
41628;DHT22;27321;50.816;6.054;2023-06-26T09:28:17;23.80;56.50
41628;DHT22;27321;50.816;6.054;2023-06-26T09:31:18;23.80;55.90
41628;DHT22;27321;50.816;6.054;2023-06-26T09:34:21;23.80;53.90
41628;DHT22;27321;50.816;6.054;2023-06-26T09:37:22;23.90;54.60
41628;DHT22;27321;50.816;6.054;2023-06-26T09:40:25;24.00;55.30
41628;DHT22;27321;50.816;6.054;2023-06-26T09:43:25;24.10;56.30
41628;DHT22;27321;50.816;6.054;2023-06-26T09:46:29;24.10;54.10
41628;DHT22;27321;50.816;6.054;2023-06-26T09:49:31;24.10;53.70
41628;DHT22;27321;50.816;6.054;2023-06-26T09:52:32;24.00;53.50
41628;DHT22;27321;50.816;6.054;2023-06-26T09:55:35;24.00;54.50
41628;DHT22;27321;50.816;6.054;2023-06-26T09:58:38;24.20;52.80
41628;DHT22;27321;50.816;6.054;2023-06-26T10:01:41;24.10;53.60
41628;DHT22;27321;50.816;6.054;2023-06-26T10:04:44;24.20;54.20
41628;DHT22;27321;50.816;6.054;2023-06-26T10:07:46;24.20;54.60
41628;DHT22;27321;50.816;6.054;2023-06-26T10:10:48;24.20;54.50
41628;DHT22;27321;50.816;6.054;2023-06-26T10:13:50;24.20;54.60
41628;DHT22;27321;50.816;6.054;2023-06-26T10:16:51;24.30;54.40
41628;DHT22;27321;50.816;6.054;2023-06-26T10:19:52;24.30;54.00
41628;DHT22;27321;50.816;6.054;2023-06-26T10:22:56;24.20;53.20
41628;DHT22;27321;50.816;6.054;2023-06-26T10:26:00;24.00;50.90
41628;DHT22;27321;50.816;6.054;2023-06-26T10:29:02;23.90;50.60
41628;DHT22;27321;50.816;6.054;2023-06-26T10:32:04;23.80;50.80
41628;DHT22;27321;50.816;6.054;2023-06-26T10:35:07;23.90;52.80
41628;DHT22;27321;50.816;6.054;2023-06-26T10:38:08;24.00;53.30
41628;DHT22;27321;50.816;6.054;2023-06-26T10:41:13;24.20;51.90
41628;DHT22;27321;50.816;6.054;2023-06-26T10:44:16;24.30;52.40
41628;DHT22;27321;50.816;6.054;2023-06-26T10:47:31;24.40;49.90
41628;DHT22;27321;50.816;6.054;2023-06-26T10:50:33;24.30;50.10
41628;DHT22;27321;50.816;6.054;2023-06-26T10:53:38;24.40;50.50
41628;DHT22;27321;50.816;6.054;2023-06-26T10:56:49;24.50;48.80
41628;DHT22;27321;50.816;6.054;2023-06-26T11:00:09;24.60;48.70
41628;DHT22;27321;50.816;6.054;2023-06-26T11:03:23;24.60;47.80
41628;DHT22;27321;50.816;6.054;2023-06-26T11:06:25;24.60;47.50
41628;DHT22;27321;50.816;6.054;2023-06-26T11:09:26;24.70;49.00
41628;DHT22;27321;50.816;6.054;2023-06-26T11:12:53;24.60;47.30
41628;DHT22;27321;50.816;6.054;2023-06-26T11:15:55;24.70;47.20
41628;DHT22;27321;50.816;6.054;2023-06-26T11:18:58;24.60;47.10
41628;DHT22;27321;50.816;6.054;2023-06-26T11:22:03;24.70;46.70
41628;DHT22;27321;50.816;6.054;2023-06-26T11:25:06;24.60;46.70
41628;DHT22;27321;50.816;6.054;2023-06-26T11:28:09;24.70;45.50
41628;DHT22;27321;50.816;6.054;2023-06-26T11:31:30;24.70;46.00
41628;DHT22;27321;50.816;6.054;2023-06-26T11:34:32;24.70;45.90
41628;DHT22;27321;50.816;6.054;2023-06-26T11:37:34;24.70;46.80
41628;DHT22;27321;50.816;6.054;2023-06-26T11:40:36;24.80;46.60
41628;DHT22;27321;50.816;6.054;2023-06-26T11:43:38;24.80;46.00
41628;DHT22;27321;50.816;6.054;2023-06-26T11:46:40;24.80;46.30
41628;DHT22;27321;50.816;6.054;2023-06-26T11:49:44;25.00;46.60
41628;DHT22;27321;50.816;6.054;2023-06-26T11:52:56;25.10;45.10
41628;DHT22;27321;50.816;6.054;2023-06-26T11:55:57;25.20;44.10
41628;DHT22;27321;50.816;6.054;2023-06-26T11:59:03;25.20;44.10
41628;DHT22;27321;50.816;6.054;2023-06-26T12:02:06;25.30;44.30
41628;DHT22;27321;50.816;6.054;2023-06-26T12:05:12;25.40;44.40
41628;DHT22;27321;50.816;6.054;2023-06-26T12:08:14;25.50;45.00
41628;DHT22;27321;50.816;6.054;2023-06-26T12:11:15;25.50;43.90
41628;DHT22;27321;50.816;6.054;2023-06-26T12:14:19;25.50;44.10
41628;DHT22;27321;50.816;6.054;2023-06-26T12:17:23;25.30;43.90
41628;DHT22;27321;50.816;6.054;2023-06-26T12:20:25;25.20;43.60
41628;DHT22;27321;50.816;6.054;2023-06-26T12:23:35;25.00;44.80
41628;DHT22;27321;50.816;6.054;2023-06-26T12:26:42;24.80;43.30
41628;DHT22;27321;50.816;6.054;2023-06-26T12:29:52;24.80;44.90
41628;DHT22;27321;50.816;6.054;2023-06-26T12:32:54;25.00;44.10
41628;DHT22;27321;50.816;6.054;2023-06-26T12:35:55;25.10;44.70
41628;DHT22;27321;50.816;6.054;2023-06-26T12:39:00;25.30;45.20
41628;DHT22;27321;50.816;6.054;2023-06-26T12:42:01;25.40;45.20
41628;DHT22;27321;50.816;6.054;2023-06-26T12:45:11;25.30;42.40
41628;DHT22;27321;50.816;6.054;2023-06-26T12:48:12;25.30;43.80
41628;DHT22;27321;50.816;6.054;2023-06-26T12:51:15;25.20;42.80
41628;DHT22;27321;50.816;6.054;2023-06-26T12:54:17;25.20;42.10
41628;DHT22;27321;50.816;6.054;2023-06-26T12:57:17;25.10;42.20
41628;DHT22;27321;50.816;6.054;2023-06-26T13:00:18;24.90;43.10
41628;DHT22;27321;50.816;6.054;2023-06-26T13:03:20;24.80;43.80
41628;DHT22;27321;50.816;6.054;2023-06-26T13:06:23;24.90;44.00
41628;DHT22;27321;50.816;6.054;2023-06-26T13:09:25;25.10;41.80
41628;DHT22;27321;50.816;6.054;2023-06-26T13:12:26;25.00;41.50
41628;DHT22;27321;50.816;6.054;2023-06-26T13:15:27;25.00;41.80
41628;DHT22;27321;50.816;6.054;2023-06-26T13:18:28;25.00;42.40
41628;DHT22;27321;50.816;6.054;2023-06-26T13:21:29;25.00;43.50
41628;DHT22;27321;50.816;6.054;2023-06-26T13:24:30;25.10;41.90
41628;DHT22;27321;50.816;6.054;2023-06-26T13:27:31;25.00;41.40
41628;DHT22;27321;50.816;6.054;2023-06-26T13:30:32;25.10;41.80
41628;DHT22;27321;50.816;6.054;2023-06-26T13:33:33;25.00;41.30
41628;DHT22;27321;50.816;6.054;2023-06-26T13:36:34;25.10;41.60
41628;DHT22;27321;50.816;6.054;2023-06-26T13:39:35;25.00;40.10
41628;DHT22;27321;50.816;6.054;2023-06-26T13:42:37;25.00;39.20
41628;DHT22;27321;50.816;6.054;2023-06-26T13:45:39;25.00;40.00
41628;DHT22;27321;50.816;6.054;2023-06-26T13:52:06;25.30;40.40
41628;DHT22;27321;50.816;6.054;2023-06-26T13:55:10;25.40;40.80
41628;DHT22;27321;50.816;6.054;2023-06-26T13:58:11;25.50;40.30
41628;DHT22;27321;50.816;6.054;2023-06-26T14:01:14;25.60;38.10
41628;DHT22;27321;50.816;6.054;2023-06-26T14:04:15;25.50;37.70
41628;DHT22;27321;50.816;6.054;2023-06-26T14:07:15;25.40;39.50
41628;DHT22;27321;50.816;6.054;2023-06-26T14:10:16;25.30;38.80
41628;DHT22;27321;50.816;6.054;2023-06-26T14:13:17;25.30;40.50
41628;DHT22;27321;50.816;6.054;2023-06-26T14:16:18;25.40;40.60
41628;DHT22;27321;50.816;6.054;2023-06-26T14:19:20;25.50;40.70
41628;DHT22;27321;50.816;6.054;2023-06-26T14:22:22;25.30;39.50
41628;DHT22;27321;50.816;6.054;2023-06-26T14:25:23;25.30;39.40
41628;DHT22;27321;50.816;6.054;2023-06-26T14:28:24;25.10;39.80
41628;DHT22;27321;50.816;6.054;2023-06-26T14:31:26;25.10;39.10
41628;DHT22;27321;50.816;6.054;2023-06-26T14:34:27;25.10;39.30
41628;DHT22;27321;50.816;6.054;2023-06-26T14:37:29;25.10;40.40
41628;DHT22;27321;50.816;6.054;2023-06-26T14:40:30;25.30;40.40
41628;DHT22;27321;50.816;6.054;2023-06-26T14:43:31;25.30;39.10
41628;DHT22;27321;50.816;6.054;2023-06-26T14:46:32;25.20;40.50
41628;DHT22;27321;50.816;6.054;2023-06-26T14:49:33;25.30;41.10
41628;DHT22;27321;50.816;6.054;2023-06-26T14:52:34;25.40;40.30
41628;DHT22;27321;50.816;6.054;2023-06-26T14:55:35;25.40;41.00
41628;DHT22;27321;50.816;6.054;2023-06-26T14:58:36;25.50;40.30
41628;DHT22;27321;50.816;6.054;2023-06-26T15:01:37;25.60;41.60
41628;DHT22;27321;50.816;6.054;2023-06-26T15:04:38;25.60;40.50
41628;DHT22;27321;50.816;6.054;2023-06-26T15:07:39;25.50;40.10
41628;DHT22;27321;50.816;6.054;2023-06-26T15:10:40;25.50;40.30
41628;DHT22;27321;50.816;6.054;2023-06-26T15:13:41;25.50;39.90
41628;DHT22;27321;50.816;6.054;2023-06-26T15:16:41;25.50;40.30
41628;DHT22;27321;50.816;6.054;2023-06-26T15:19:42;25.50;40.30
41628;DHT22;27321;50.816;6.054;2023-06-26T15:22:43;25.50;39.20
41628;DHT22;27321;50.816;6.054;2023-06-26T15:25:44;25.40;39.20
41628;DHT22;27321;50.816;6.054;2023-06-26T15:28:45;25.40;40.60
41628;DHT22;27321;50.816;6.054;2023-06-26T15:31:46;25.40;39.70
41628;DHT22;27321;50.816;6.054;2023-06-26T15:34:47;25.40;40.90
41628;DHT22;27321;50.816;6.054;2023-06-26T15:37:48;25.50;40.80
41628;DHT22;27321;50.816;6.054;2023-06-26T15:40:50;25.50;39.60
41628;DHT22;27321;50.816;6.054;2023-06-26T15:43:50;25.50;40.00
41628;DHT22;27321;50.816;6.054;2023-06-26T15:46:51;25.40;40.20
41628;DHT22;27321;50.816;6.054;2023-06-26T15:49:52;25.50;40.90
41628;DHT22;27321;50.816;6.054;2023-06-26T15:52:53;25.50;39.90
41628;DHT22;27321;50.816;6.054;2023-06-26T15:55:54;25.50;38.90
41628;DHT22;27321;50.816;6.054;2023-06-26T15:58:55;25.50;39.30
41628;DHT22;27321;50.816;6.054;2023-06-26T16:01:56;25.50;39.30
41628;DHT22;27321;50.816;6.054;2023-06-26T16:04:57;25.60;39.00
41628;DHT22;27321;50.816;6.054;2023-06-26T16:07:58;25.60;37.70
41628;DHT22;27321;50.816;6.054;2023-06-26T16:10:58;25.60;37.20
41628;DHT22;27321;50.816;6.054;2023-06-26T16:13:59;25.60;38.40
41628;DHT22;27321;50.816;6.054;2023-06-26T16:17:00;25.80;38.00
41628;DHT22;27321;50.816;6.054;2023-06-26T16:20:02;25.80;36.90
41628;DHT22;27321;50.816;6.054;2023-06-26T16:23:03;25.70;37.30
41628;DHT22;27321;50.816;6.054;2023-06-26T16:26:04;25.80;38.20
41628;DHT22;27321;50.816;6.054;2023-06-26T16:29:05;25.90;37.40
41628;DHT22;27321;50.816;6.054;2023-06-26T16:32:07;25.80;36.80
41628;DHT22;27321;50.816;6.054;2023-06-26T16:35:08;25.70;37.40
41628;DHT22;27321;50.816;6.054;2023-06-26T16:38:09;25.50;37.80
41628;DHT22;27321;50.816;6.054;2023-06-26T16:41:10;25.40;38.90
41628;DHT22;27321;50.816;6.054;2023-06-26T16:44:11;25.30;38.30
41628;DHT22;27321;50.816;6.054;2023-06-26T16:47:12;25.20;39.10
41628;DHT22;27321;50.816;6.054;2023-06-26T16:50:17;25.00;39.00
41628;DHT22;27321;50.816;6.054;2023-06-26T16:53:18;24.90;39.40
41628;DHT22;27321;50.816;6.054;2023-06-26T16:56:18;24.80;40.30
41628;DHT22;27321;50.816;6.054;2023-06-26T16:59:19;24.80;40.10
41628;DHT22;27321;50.816;6.054;2023-06-26T17:02:20;24.80;40.70
41628;DHT22;27321;50.816;6.054;2023-06-26T17:05:21;24.80;40.60
41628;DHT22;27321;50.816;6.054;2023-06-26T17:08:22;24.80;40.30
41628;DHT22;27321;50.816;6.054;2023-06-26T17:11:23;24.80;39.70
41628;DHT22;27321;50.816;6.054;2023-06-26T17:14:24;24.70;40.20
41628;DHT22;27321;50.816;6.054;2023-06-26T17:17:25;24.60;40.50
41628;DHT22;27321;50.816;6.054;2023-06-26T17:20:26;24.50;39.90
41628;DHT22;27321;50.816;6.054;2023-06-26T17:23:27;24.30;40.60
41628;DHT22;27321;50.816;6.054;2023-06-26T17:26:29;24.30;41.10
41628;DHT22;27321;50.816;6.054;2023-06-26T17:29:31;24.30;41.00
41628;DHT22;27321;50.816;6.054;2023-06-26T17:32:32;24.20;41.40
41628;DHT22;27321;50.816;6.054;2023-06-26T17:35:33;24.10;41.70
41628;DHT22;27321;50.816;6.054;2023-06-26T17:38:35;24.10;42.40
41628;DHT22;27321;50.816;6.054;2023-06-26T17:41:37;24.20;42.60
41628;DHT22;27321;50.816;6.054;2023-06-26T17:44:38;24.30;42.70
41628;DHT22;27321;50.816;6.054;2023-06-26T17:47:40;24.40;42.80
41628;DHT22;27321;50.816;6.054;2023-06-26T17:50:44;24.40;41.40
41628;DHT22;27321;50.816;6.054;2023-06-26T17:53:45;24.30;42.00
41628;DHT22;27321;50.816;6.054;2023-06-26T17:56:46;24.30;42.20
41628;DHT22;27321;50.816;6.054;2023-06-26T17:59:47;24.20;42.70
41628;DHT22;27321;50.816;6.054;2023-06-26T18:02:48;24.10;42.40
41628;DHT22;27321;50.816;6.054;2023-06-26T18:05:50;24.00;42.70
41628;DHT22;27321;50.816;6.054;2023-06-26T18:08:51;23.80;42.70
41628;DHT22;27321;50.816;6.054;2023-06-26T18:11:52;23.60;43.30
41628;DHT22;27321;50.816;6.054;2023-06-26T18:14:53;23.80;43.80
41628;DHT22;27321;50.816;6.054;2023-06-26T18:17:54;23.80;43.90
41628;DHT22;27321;50.816;6.054;2023-06-26T18:20:55;23.70;43.60
41628;DHT22;27321;50.816;6.054;2023-06-26T18:23:58;23.70;43.50
41628;DHT22;27321;50.816;6.054;2023-06-26T18:27:00;23.60;43.30
41628;DHT22;27321;50.816;6.054;2023-06-26T18:30:01;23.60;43.60
41628;DHT22;27321;50.816;6.054;2023-06-26T18:33:02;23.50;43.90
41628;DHT22;27321;50.816;6.054;2023-06-26T18:36:04;23.40;44.50
41628;DHT22;27321;50.816;6.054;2023-06-26T18:39:07;23.50;45.10
41628;DHT22;27321;50.816;6.054;2023-06-26T18:42:08;23.40;45.50
41628;DHT22;27321;50.816;6.054;2023-06-26T18:45:11;23.30;46.00
41628;DHT22;27321;50.816;6.054;2023-06-26T18:48:13;23.50;46.10
41628;DHT22;27321;50.816;6.054;2023-06-26T18:51:14;23.50;45.70
41628;DHT22;27321;50.816;6.054;2023-06-26T18:54:15;23.50;45.40
41628;DHT22;27321;50.816;6.054;2023-06-26T18:57:17;23.40;44.80
41628;DHT22;27321;50.816;6.054;2023-06-26T19:00:18;23.30;45.00
41628;DHT22;27321;50.816;6.054;2023-06-26T19:03:19;23.10;45.10
41628;DHT22;27321;50.816;6.054;2023-06-26T19:06:20;23.10;45.70
41628;DHT22;27321;50.816;6.054;2023-06-26T19:09:21;23.10;45.50
41628;DHT22;27321;50.816;6.054;2023-06-26T19:12:22;23.00;45.80
41628;DHT22;27321;50.816;6.054;2023-06-26T19:15:24;23.10;46.40